sensor_id;sensor_type;location;lat;lon;timestamp;temperature;humidity
17938;DHT22;16051;53.024;8.630;2022-07-04T00:01:19;17.10;99.90
17938;DHT22;16051;53.024;8.630;2022-07-04T00:05:36;17.00;99.90
17938;DHT22;16051;53.024;8.630;2022-07-04T00:09:38;16.90;99.90
17938;DHT22;16051;53.024;8.630;2022-07-04T00:13:40;16.90;99.90
17938;DHT22;16051;53.024;8.630;2022-07-04T00:17:43;16.90;99.90
17938;DHT22;16051;53.024;8.630;2022-07-04T00:21:49;16.80;99.90
17938;DHT22;16051;53.024;8.630;2022-07-04T00:25:52;16.70;99.90
17938;DHT22;16051;53.024;8.630;2022-07-04T00:29:54;16.70;99.90
17938;DHT22;16051;53.024;8.630;2022-07-04T00:33:56;16.70;99.90
17938;DHT22;16051;53.024;8.630;2022-07-04T00:38:16;16.60;99.90
17938;DHT22;16051;53.024;8.630;2022-07-04T00:42:18;16.60;99.90
17938;DHT22;16051;53.024;8.630;2022-07-04T00:46:20;16.50;99.90
17938;DHT22;16051;53.024;8.630;2022-07-04T00:50:23;16.50;99.90
17938;DHT22;16051;53.024;8.630;2022-07-04T00:54:29;16.40;99.90
17938;DHT22;16051;53.024;8.630;2022-07-04T00:58:33;16.40;99.90
17938;DHT22;16051;53.024;8.630;2022-07-04T01:02:36;16.30;99.90
17938;DHT22;16051;53.024;8.630;2022-07-04T01:06:38;16.30;99.90
17938;DHT22;16051;53.024;8.630;2022-07-04T01:10:41;16.20;99.90
17938;DHT22;16051;53.024;8.630;2022-07-04T01:14:44;16.10;99.90
17938;DHT22;16051;53.024;8.630;2022-07-04T01:18:46;16.10;99.90
17938;DHT22;16051;53.024;8.630;2022-07-04T01:23:05;16.00;99.90
17938;DHT22;16051;53.024;8.630;2022-07-04T01:27:08;16.00;99.90
17938;DHT22;16051;53.024;8.630;2022-07-04T01:31:10;16.00;99.90
17938;DHT22;16051;53.024;8.630;2022-07-04T01:35:12;16.00;99.90
17938;DHT22;16051;53.024;8.630;2022-07-04T01:39:16;15.90;99.90
17938;DHT22;16051;53.024;8.630;2022-07-04T01:43:34;15.90;99.90
17938;DHT22;16051;53.024;8.630;2022-07-04T01:47:37;15.90;99.90
17938;DHT22;16051;53.024;8.630;2022-07-04T01:51:44;15.80;99.90
17938;DHT22;16051;53.024;8.630;2022-07-04T01:55:48;15.80;99.90
17938;DHT22;16051;53.024;8.630;2022-07-04T01:59:50;15.80;99.90
17938;DHT22;16051;53.024;8.630;2022-07-04T02:04:10;15.70;99.90
17938;DHT22;16051;53.024;8.630;2022-07-04T02:08:31;15.70;99.90
17938;DHT22;16051;53.024;8.630;2022-07-04T02:12:48;15.60;99.90
17938;DHT22;16051;53.024;8.630;2022-07-04T02:17:05;15.60;99.90
17938;DHT22;16051;53.024;8.630;2022-07-04T02:21:07;15.60;99.90
17938;DHT22;16051;53.024;8.630;2022-07-04T02:25:09;15.50;99.90
17938;DHT22;16051;53.024;8.630;2022-07-04T02:29:14;15.50;99.90
17938;DHT22;16051;53.024;8.630;2022-07-04T02:33:16;15.40;99.90
17938;DHT22;16051;53.024;8.630;2022-07-04T02:37:18;15.40;99.90
17938;DHT22;16051;53.024;8.630;2022-07-04T02:41:20;15.40;99.90
17938;DHT22;16051;53.024;8.630;2022-07-04T02:45:24;15.40;99.90
17938;DHT22;16051;53.024;8.630;2022-07-04T02:49:27;15.30;99.90
17938;DHT22;16051;53.024;8.630;2022-07-04T02:53:29;15.30;99.90
17938;DHT22;16051;53.024;8.630;2022-07-04T02:57:31;15.30;99.90
17938;DHT22;16051;53.024;8.630;2022-07-04T03:01:35;15.20;99.90
17938;DHT22;16051;53.024;8.630;2022-07-04T03:05:54;15.20;99.90
17938;DHT22;16051;53.024;8.630;2022-07-04T03:09:56;15.10;99.90
17938;DHT22;16051;53.024;8.630;2022-07-04T03:13:58;15.20;99.90
17938;DHT22;16051;53.024;8.630;2022-07-04T03:18:02;15.10;99.90
17938;DHT22;16051;53.024;8.630;2022-07-04T03:22:04;15.10;99.90
17938;DHT22;16051;53.024;8.630;2022-07-04T03:26:06;15.10;99.90
17938;DHT22;16051;53.024;8.630;2022-07-04T03:30:10;15.00;99.90
17938;DHT22;16051;53.024;8.630;2022-07-04T03:34:30;15.00;99.90
17938;DHT22;16051;53.024;8.630;2022-07-04T03:38:32;15.00;99.90
17938;DHT22;16051;53.024;8.630;2022-07-04T03:42:34;15.00;99.90
17938;DHT22;16051;53.024;8.630;2022-07-04T03:46:36;15.00;99.90
17938;DHT22;16051;53.024;8.630;2022-07-04T03:50:40;15.00;99.90
17938;DHT22;16051;53.024;8.630;2022-07-04T03:54:42;14.90;99.90
17938;DHT22;16051;53.024;8.630;2022-07-04T03:59:01;14.90;99.90
17938;DHT22;16051;53.024;8.630;2022-07-04T04:03:03;14.90;99.90
17938;DHT22;16051;53.024;8.630;2022-07-04T04:07:26;14.90;99.90
17938;DHT22;16051;53.024;8.630;2022-07-04T04:11:28;14.90;99.90
17938;DHT22;16051;53.024;8.630;2022-07-04T04:15:31;14.90;99.90
17938;DHT22;16051;53.024;8.630;2022-07-04T04:19:34;14.90;99.90
17938;DHT22;16051;53.024;8.630;2022-07-04T04:23:45;14.90;99.90
17938;DHT22;16051;53.024;8.630;2022-07-04T04:27:47;14.90;99.90
17938;DHT22;16051;53.024;8.630;2022-07-04T04:31:50;14.90;99.90
17938;DHT22;16051;53.024;8.630;2022-07-04T04:35:52;14.90;99.90
17938;DHT22;16051;53.024;8.630;2022-07-04T04:39:55;14.90;99.90
17938;DHT22;16051;53.024;8.630;2022-07-04T04:44:01;14.90;99.90
17938;DHT22;16051;53.024;8.630;2022-07-04T04:48:03;15.00;99.90
17938;DHT22;16051;53.024;8.630;2022-07-04T04:52:06;15.00;99.90
17938;DHT22;16051;53.024;8.630;2022-07-04T04:56:09;15.00;99.90
17938;DHT22;16051;53.024;8.630;2022-07-04T05:00:12;15.00;99.90
17938;DHT22;16051;53.024;8.630;2022-07-04T05:04:15;15.00;99.90
17938;DHT22;16051;53.024;8.630;2022-07-04T05:08:17;15.00;99.90
17938;DHT22;16051;53.024;8.630;2022-07-04T05:12:21;15.10;99.90
17938;DHT22;16051;53.024;8.630;2022-07-04T05:16:23;15.10;99.90
17938;DHT22;16051;53.024;8.630;2022-07-04T05:20:25;15.20;99.90
17938;DHT22;16051;53.024;8.630;2022-07-04T05:24:27;15.20;99.90
17938;DHT22;16051;53.024;8.630;2022-07-04T05:28:31;15.20;99.90
17938;DHT22;16051;53.024;8.630;2022-07-04T05:32:33;15.30;99.90
17938;DHT22;16051;53.024;8.630;2022-07-04T05:36:36;15.40;99.90
17938;DHT22;16051;53.024;8.630;2022-07-04T05:40:41;15.40;99.90
17938;DHT22;16051;53.024;8.630;2022-07-04T05:44:44;15.40;99.90
17938;DHT22;16051;53.024;8.630;2022-07-04T05:48:46;15.50;99.90
17938;DHT22;16051;53.024;8.630;2022-07-04T05:52:49;15.60;99.90
17938;DHT22;16051;53.024;8.630;2022-07-04T05:56:52;15.70;99.90
17938;DHT22;16051;53.024;8.630;2022-07-04T06:00:55;15.70;99.90
17938;DHT22;16051;53.024;8.630;2022-07-04T06:04:58;15.80;99.90
17938;DHT22;16051;53.024;8.630;2022-07-04T06:09:00;15.80;99.90
17938;DHT22;16051;53.024;8.630;2022-07-04T06:13:03;15.90;99.90
17938;DHT22;16051;53.024;8.630;2022-07-04T06:17:07;16.00;99.90
17938;DHT22;16051;53.024;8.630;2022-07-04T06:21:26;16.10;99.90
17938;DHT22;16051;53.024;8.630;2022-07-04T06:25:28;16.10;99.90
17938;DHT22;16051;53.024;8.630;2022-07-04T06:29:30;16.20;99.90
17938;DHT22;16051;53.024;8.630;2022-07-04T06:33:33;16.30;99.90
17938;DHT22;16051;53.024;8.630;2022-07-04T06:37:56;16.30;99.90
17938;DHT22;16051;53.024;8.630;2022-07-04T06:41:59;16.40;99.90
17938;DHT22;16051;53.024;8.630;2022-07-04T06:46:01;16.50;99.90
17938;DHT22;16051;53.024;8.630;2022-07-04T06:50:33;16.60;99.90
17938;DHT22;16051;53.024;8.630;2022-07-04T06:54:35;16.90;99.90
17938;DHT22;16051;53.024;8.630;2022-07-04T06:58:39;16.90;99.90
17938;DHT22;16051;53.024;8.630;2022-07-04T07:02:56;16.90;99.90
17938;DHT22;16051;53.024;8.630;2022-07-04T07:06:59;17.00;99.90
17938;DHT22;16051;53.024;8.630;2022-07-04T07:11:02;17.10;99.90
17938;DHT22;16051;53.024;8.630;2022-07-04T07:15:16;17.30;99.90
17938;DHT22;16051;53.024;8.630;2022-07-04T07:19:20;17.40;99.90
17938;DHT22;16051;53.024;8.630;2022-07-04T07:23:23;17.50;99.90
17938;DHT22;16051;53.024;8.630;2022-07-04T07:27:27;17.70;99.90
17938;DHT22;16051;53.024;8.630;2022-07-04T07:31:29;17.90;99.90
17938;DHT22;16051;53.024;8.630;2022-07-04T07:35:32;18.10;99.90
17938;DHT22;16051;53.024;8.630;2022-07-04T07:39:55;18.20;99.90
17938;DHT22;16051;53.024;8.630;2022-07-04T07:43:57;18.50;99.90
17938;DHT22;16051;53.024;8.630;2022-07-04T07:48:00;18.90;99.90
17938;DHT22;16051;53.024;8.630;2022-07-04T07:52:02;19.20;99.90
17938;DHT22;16051;53.024;8.630;2022-07-04T07:56:06;19.70;99.90
17938;DHT22;16051;53.024;8.630;2022-07-04T08:00:09;20.20;99.90
17938;DHT22;16051;53.024;8.630;2022-07-04T08:04:15;20.80;99.90
17938;DHT22;16051;53.024;8.630;2022-07-04T08:08:34;21.90;99.90
17938;DHT22;16051;53.024;8.630;2022-07-04T08:12:38;22.70;99.90
17938;DHT22;16051;53.024;8.630;2022-07-04T08:16:40;23.30;99.90
17938;DHT22;16051;53.024;8.630;2022-07-04T08:20:42;23.30;99.90
17938;DHT22;16051;53.024;8.630;2022-07-04T08:24:45;23.80;99.90
17938;DHT22;16051;53.024;8.630;2022-07-04T08:28:50;24.10;99.60
17938;DHT22;16051;53.024;8.630;2022-07-04T08:32:55;24.20;98.70
17938;DHT22;16051;53.024;8.630;2022-07-04T08:36:57;24.00;98.70
17938;DHT22;16051;53.024;8.630;2022-07-04T08:41:02;24.60;98.20
17938;DHT22;16051;53.024;8.630;2022-07-04T08:45:07;24.50;96.40
17938;DHT22;16051;53.024;8.630;2022-07-04T08:49:14;24.80;96.10
17938;DHT22;16051;53.024;8.630;2022-07-04T08:53:21;25.10;94.40
17938;DHT22;16051;53.024;8.630;2022-07-04T08:57:24;25.60;95.60
17938;DHT22;16051;53.024;8.630;2022-07-04T09:01:46;24.50;94.50
17938;DHT22;16051;53.024;8.630;2022-07-04T09:05:48;23.50;95.30
17938;DHT22;16051;53.024;8.630;2022-07-04T09:09:51;23.60;96.40
17938;DHT22;16051;53.024;8.630;2022-07-04T09:13:56;23.80;96.90
17938;DHT22;16051;53.024;8.630;2022-07-04T09:18:03;23.50;95.80
17938;DHT22;16051;53.024;8.630;2022-07-04T09:22:08;22.30;97.60
17938;DHT22;16051;53.024;8.630;2022-07-04T09:26:14;24.10;96.90
17938;DHT22;16051;53.024;8.630;2022-07-04T09:30:19;23.60;95.10
17938;DHT22;16051;53.024;8.630;2022-07-04T09:34:24;23.00;95.90
17938;DHT22;16051;53.024;8.630;2022-07-04T09:38:28;24.20;95.90
17938;DHT22;16051;53.024;8.630;2022-07-04T09:42:39;25.20;94.30
17938;DHT22;16051;53.024;8.630;2022-07-04T09:46:42;25.20;93.80
17938;DHT22;16051;53.024;8.630;2022-07-04T09:50:46;25.50;93.20
17938;DHT22;16051;53.024;8.630;2022-07-04T09:54:48;26.50;92.20
17938;DHT22;16051;53.024;8.630;2022-07-04T09:58:56;25.60;90.80
17938;DHT22;16051;53.024;8.630;2022-07-04T10:03:16;25.50;91.60
17938;DHT22;16051;53.024;8.630;2022-07-04T10:07:35;24.60;91.60
17938;DHT22;16051;53.024;8.630;2022-07-04T10:11:39;23.90;92.20
17938;DHT22;16051;53.024;8.630;2022-07-04T10:15:43;24.30;93.10
17938;DHT22;16051;53.024;8.630;2022-07-04T10:19:45;23.70;92.20
17938;DHT22;16051;53.024;8.630;2022-07-04T10:23:52;23.60;93.50
17938;DHT22;16051;53.024;8.630;2022-07-04T10:27:55;23.20;92.70
17938;DHT22;16051;53.024;8.630;2022-07-04T10:32:31;23.60;93.80
17938;DHT22;16051;53.024;8.630;2022-07-04T10:36:34;24.00;92.70
17938;DHT22;16051;53.024;8.630;2022-07-04T10:40:55;23.60;93.00
17938;DHT22;16051;53.024;8.630;2022-07-04T10:45:01;23.30;93.30
17938;DHT22;16051;53.024;8.630;2022-07-04T10:49:06;24.60;92.30
17938;DHT22;16051;53.024;8.630;2022-07-04T10:53:09;25.60;90.80
17938;DHT22;16051;53.024;8.630;2022-07-04T10:57:15;25.90;89.40
17938;DHT22;16051;53.024;8.630;2022-07-04T11:01:18;26.60;87.30
17938;DHT22;16051;53.024;8.630;2022-07-04T11:05:30;26.20;83.80
17938;DHT22;16051;53.024;8.630;2022-07-04T11:09:47;25.70;86.80
17938;DHT22;16051;53.024;8.630;2022-07-04T11:14:36;26.10;86.20
17938;DHT22;16051;53.024;8.630;2022-07-04T11:18:44;26.70;82.20
17938;DHT22;16051;53.024;8.630;2022-07-04T11:22:46;25.90;84.30
17938;DHT22;16051;53.024;8.630;2022-07-04T11:26:49;25.00;84.40
17938;DHT22;16051;53.024;8.630;2022-07-04T11:30:54;24.50;84.80
17938;DHT22;16051;53.024;8.630;2022-07-04T11:34:57;24.80;86.30
17938;DHT22;16051;53.024;8.630;2022-07-04T11:39:00;26.50;85.40
17938;DHT22;16051;53.024;8.630;2022-07-04T11:43:05;26.80;79.80
17938;DHT22;16051;53.024;8.630;2022-07-04T11:47:37;26.80;82.80
17938;DHT22;16051;53.024;8.630;2022-07-04T11:56:25;27.40;78.60
17938;DHT22;16051;53.024;8.630;2022-07-04T12:00:29;26.80;76.40
17938;DHT22;16051;53.024;8.630;2022-07-04T12:04:33;27.30;77.40
17938;DHT22;16051;53.024;8.630;2022-07-04T12:08:38;27.60;74.80
17938;DHT22;16051;53.024;8.630;2022-07-04T12:12:53;27.30;72.60
17938;DHT22;16051;53.024;8.630;2022-07-04T12:17:34;27.40;75.00
17938;DHT22;16051;53.024;8.630;2022-07-04T12:21:39;27.40;71.40
17938;DHT22;16051;53.024;8.630;2022-07-04T12:25:45;27.80;73.80
17938;DHT22;16051;53.024;8.630;2022-07-04T12:29:48;26.80;72.60
17938;DHT22;16051;53.024;8.630;2022-07-04T12:33:54;27.30;73.80
17938;DHT22;16051;53.024;8.630;2022-07-04T12:38:03;27.40;75.90
17938;DHT22;16051;53.024;8.630;2022-07-04T12:42:10;28.20;73.00
17938;DHT22;16051;53.024;8.630;2022-07-04T12:46:26;26.70;73.30
17938;DHT22;16051;53.024;8.630;2022-07-04T12:50:30;26.00;74.00
17938;DHT22;16051;53.024;8.630;2022-07-04T12:54:34;25.80;77.40
17938;DHT22;16051;53.024;8.630;2022-07-04T12:58:37;25.50;78.00
17938;DHT22;16051;53.024;8.630;2022-07-04T13:02:39;25.30;79.90
17938;DHT22;16051;53.024;8.630;2022-07-04T13:06:43;26.40;80.40
17938;DHT22;16051;53.024;8.630;2022-07-04T13:10:48;26.30;78.40
17938;DHT22;16051;53.024;8.630;2022-07-04T13:15:11;26.40;78.40
17938;DHT22;16051;53.024;8.630;2022-07-04T13:19:14;27.00;77.90
17938;DHT22;16051;53.024;8.630;2022-07-04T13:23:17;27.00;76.90
17938;DHT22;16051;53.024;8.630;2022-07-04T13:27:21;26.20;72.50
17938;DHT22;16051;53.024;8.630;2022-07-04T13:31:23;26.20;74.40
17938;DHT22;16051;53.024;8.630;2022-07-04T13:35:25;27.00;75.70
17938;DHT22;16051;53.024;8.630;2022-07-04T13:39:28;27.20;75.40
17938;DHT22;16051;53.024;8.630;2022-07-04T13:44:05;26.50;74.60
17938;DHT22;16051;53.024;8.630;2022-07-04T13:48:08;25.70;73.90
17938;DHT22;16051;53.024;8.630;2022-07-04T13:52:11;25.70;76.30
17938;DHT22;16051;53.024;8.630;2022-07-04T13:56:13;26.60;73.80
17938;DHT22;16051;53.024;8.630;2022-07-04T14:00:20;27.30;75.70
17938;DHT22;16051;53.024;8.630;2022-07-04T14:04:22;26.10;76.20
17938;DHT22;16051;53.024;8.630;2022-07-04T14:13:00;24.90;79.30
17938;DHT22;16051;53.024;8.630;2022-07-04T14:17:04;25.80;79.10
17938;DHT22;16051;53.024;8.630;2022-07-04T14:21:06;26.90;78.00
17938;DHT22;16051;53.024;8.630;2022-07-04T14:25:09;26.60;77.20
17938;DHT22;16051;53.024;8.630;2022-07-04T14:29:31;26.80;77.30
17938;DHT22;16051;53.024;8.630;2022-07-04T14:33:36;26.50;75.80
17938;DHT22;16051;53.024;8.630;2022-07-04T14:37:38;26.30;78.30
17938;DHT22;16051;53.024;8.630;2022-07-04T14:41:41;26.30;75.00
17938;DHT22;16051;53.024;8.630;2022-07-04T14:45:46;25.70;77.40
17938;DHT22;16051;53.024;8.630;2022-07-04T14:49:49;26.00;78.50
17938;DHT22;16051;53.024;8.630;2022-07-04T14:53:52;26.80;76.80
17938;DHT22;16051;53.024;8.630;2022-07-04T14:57:54;26.90;74.00
17938;DHT22;16051;53.024;8.630;2022-07-04T15:01:56;26.30;73.00
17938;DHT22;16051;53.024;8.630;2022-07-04T15:06:34;26.60;73.20
17938;DHT22;16051;53.024;8.630;2022-07-04T15:10:36;27.50;71.90
17938;DHT22;16051;53.024;8.630;2022-07-04T15:14:39;27.60;68.50
17938;DHT22;16051;53.024;8.630;2022-07-04T15:18:41;26.90;70.00
17938;DHT22;16051;53.024;8.630;2022-07-04T15:22:44;26.20;71.80
17938;DHT22;16051;53.024;8.630;2022-07-04T15:27:04;26.60;71.70
17938;DHT22;16051;53.024;8.630;2022-07-04T15:31:28;27.20;72.10
17938;DHT22;16051;53.024;8.630;2022-07-04T15:35:30;27.50;68.30
17938;DHT22;16051;53.024;8.630;2022-07-04T15:39:34;27.00;71.40
17938;DHT22;16051;53.024;8.630;2022-07-04T15:43:38;27.10;70.30
17938;DHT22;16051;53.024;8.630;2022-07-04T15:47:40;26.60;70.50
17938;DHT22;16051;53.024;8.630;2022-07-04T15:51:42;27.10;69.80
17938;DHT22;16051;53.024;8.630;2022-07-04T15:55:46;27.10;71.60
17938;DHT22;16051;53.024;8.630;2022-07-04T15:59:48;26.50;69.30
17938;DHT22;16051;53.024;8.630;2022-07-04T16:03:51;26.70;71.10
17938;DHT22;16051;53.024;8.630;2022-07-04T16:07:53;26.60;70.40
17938;DHT22;16051;53.024;8.630;2022-07-04T16:12:14;27.10;68.50
17938;DHT22;16051;53.024;8.630;2022-07-04T16:16:31;27.20;67.40
17938;DHT22;16051;53.024;8.630;2022-07-04T16:20:33;27.50;68.90
17938;DHT22;16051;53.024;8.630;2022-07-04T16:24:35;27.20;65.90
17938;DHT22;16051;53.024;8.630;2022-07-04T16:28:46;26.00;66.80
17938;DHT22;16051;53.024;8.630;2022-07-04T16:32:48;26.40;69.00
17938;DHT22;16051;53.024;8.630;2022-07-04T16:36:51;26.80;66.10
17938;DHT22;16051;53.024;8.630;2022-07-04T16:41:12;26.60;67.90
17938;DHT22;16051;53.024;8.630;2022-07-04T16:45:24;26.20;68.00
17938;DHT22;16051;53.024;8.630;2022-07-04T16:49:26;26.70;66.70
17938;DHT22;16051;53.024;8.630;2022-07-04T16:53:28;26.80;68.30
17938;DHT22;16051;53.024;8.630;2022-07-04T16:57:37;26.60;69.10
17938;DHT22;16051;53.024;8.630;2022-07-04T17:01:41;26.60;67.70
17938;DHT22;16051;53.024;8.630;2022-07-04T17:05:43;26.50;68.20
17938;DHT22;16051;53.024;8.630;2022-07-04T17:09:46;26.60;67.00
17938;DHT22;16051;53.024;8.630;2022-07-04T17:13:48;26.40;67.10
17938;DHT22;16051;53.024;8.630;2022-07-04T17:17:51;26.40;67.30
17938;DHT22;16051;53.024;8.630;2022-07-04T17:21:54;26.40;67.10
17938;DHT22;16051;53.024;8.630;2022-07-04T17:25:56;26.10;66.10
17938;DHT22;16051;53.024;8.630;2022-07-04T17:29:59;26.00;68.30
17938;DHT22;16051;53.024;8.630;2022-07-04T17:34:03;25.80;69.70
17938;DHT22;16051;53.024;8.630;2022-07-04T17:38:05;25.70;69.20
17938;DHT22;16051;53.024;8.630;2022-07-04T17:42:07;25.40;69.10
17938;DHT22;16051;53.024;8.630;2022-07-04T17:46:09;25.50;71.70
17938;DHT22;16051;53.024;8.630;2022-07-04T17:50:13;25.20;71.60
17938;DHT22;16051;53.024;8.630;2022-07-04T17:54:15;24.90;70.60
17938;DHT22;16051;53.024;8.630;2022-07-04T17:58:17;25.20;72.90
17938;DHT22;16051;53.024;8.630;2022-07-04T18:02:30;25.90;72.00
17938;DHT22;16051;53.024;8.630;2022-07-04T18:06:36;26.00;72.40
17938;DHT22;16051;53.024;8.630;2022-07-04T18:15:16;25.90;74.50
17938;DHT22;16051;53.024;8.630;2022-07-04T18:19:19;25.80;76.20
17938;DHT22;16051;53.024;8.630;2022-07-04T18:23:23;25.60;75.70
17938;DHT22;16051;53.024;8.630;2022-07-04T18:27:38;25.60;75.80
17938;DHT22;16051;53.024;8.630;2022-07-04T18:31:40;25.40;76.80
17938;DHT22;16051;53.024;8.630;2022-07-04T18:35:42;25.30;77.60
17938;DHT22;16051;53.024;8.630;2022-07-04T18:39:46;25.10;78.20
17938;DHT22;16051;53.024;8.630;2022-07-04T18:43:49;25.00;78.80
17938;DHT22;16051;53.024;8.630;2022-07-04T18:47:51;24.90;78.50
17938;DHT22;16051;53.024;8.630;2022-07-04T18:51:55;24.70;78.90
17938;DHT22;16051;53.024;8.630;2022-07-04T18:56:32;24.60;78.90
17938;DHT22;16051;53.024;8.630;2022-07-04T19:00:34;24.30;78.90
17938;DHT22;16051;53.024;8.630;2022-07-04T19:04:37;24.30;79.60
17938;DHT22;16051;53.024;8.630;2022-07-04T19:08:40;24.10;79.30
17938;DHT22;16051;53.024;8.630;2022-07-04T19:12:44;24.00;79.60
17938;DHT22;16051;53.024;8.630;2022-07-04T19:16:47;23.80;80.20
17938;DHT22;16051;53.024;8.630;2022-07-04T19:20:49;23.70;81.10
17938;DHT22;16051;53.024;8.630;2022-07-04T19:24:53;23.50;82.40
17938;DHT22;16051;53.024;8.630;2022-07-04T19:28:56;23.40;83.60
17938;DHT22;16051;53.024;8.630;2022-07-04T19:32:59;23.20;84.70
17938;DHT22;16051;53.024;8.630;2022-07-04T19:37:01;23.10;85.30
17938;DHT22;16051;53.024;8.630;2022-07-04T19:41:03;23.00;86.50
17938;DHT22;16051;53.024;8.630;2022-07-04T19:45:14;22.70;87.70
17938;DHT22;16051;53.024;8.630;2022-07-04T19:49:17;22.50;88.70
17938;DHT22;16051;53.024;8.630;2022-07-04T19:53:19;22.40;89.40
17938;DHT22;16051;53.024;8.630;2022-07-04T19:57:23;22.20;90.20
17938;DHT22;16051;53.024;8.630;2022-07-04T20:01:32;22.10;90.30
17938;DHT22;16051;53.024;8.630;2022-07-04T20:05:35;22.00;90.60
17938;DHT22;16051;53.024;8.630;2022-07-04T20:09:37;21.80;90.80
17938;DHT22;16051;53.024;8.630;2022-07-04T20:13:40;21.70;91.10
17938;DHT22;16051;53.024;8.630;2022-07-04T20:17:43;21.60;91.50
17938;DHT22;16051;53.024;8.630;2022-07-04T20:21:46;21.50;91.70
17938;DHT22;16051;53.024;8.630;2022-07-04T20:25:53;21.50;92.00
17938;DHT22;16051;53.024;8.630;2022-07-04T20:29:55;21.30;92.30
17938;DHT22;16051;53.024;8.630;2022-07-04T20:33:59;21.20;92.60
17938;DHT22;16051;53.024;8.630;2022-07-04T20:38:17;21.10;92.80
17938;DHT22;16051;53.024;8.630;2022-07-04T20:42:20;21.00;93.20
17938;DHT22;16051;53.024;8.630;2022-07-04T20:46:25;21.00;93.50
17938;DHT22;16051;53.024;8.630;2022-07-04T20:50:29;20.90;93.60
17938;DHT22;16051;53.024;8.630;2022-07-04T20:54:31;20.50;94.20
17938;DHT22;16051;53.024;8.630;2022-07-04T20:58:33;20.40;94.40
17938;DHT22;16051;53.024;8.630;2022-07-04T21:02:35;20.30;94.60
17938;DHT22;16051;53.024;8.630;2022-07-04T21:06:39;20.20;94.90
17938;DHT22;16051;53.024;8.630;2022-07-04T21:10:41;20.00;95.20
17938;DHT22;16051;53.024;8.630;2022-07-04T21:14:44;19.90;95.50
17938;DHT22;16051;53.024;8.630;2022-07-04T21:18:59;19.80;95.80
17938;DHT22;16051;53.024;8.630;2022-07-04T21:23:02;19.70;96.10
17938;DHT22;16051;53.024;8.630;2022-07-04T21:27:04;19.50;96.60
17938;DHT22;16051;53.024;8.630;2022-07-04T21:31:06;19.50;97.10
17938;DHT22;16051;53.024;8.630;2022-07-04T21:35:09;19.40;97.50
17938;DHT22;16051;53.024;8.630;2022-07-04T21:39:12;19.30;97.90
17938;DHT22;16051;53.024;8.630;2022-07-04T21:43:14;19.20;98.50
17938;DHT22;16051;53.024;8.630;2022-07-04T21:47:16;19.00;98.90
17938;DHT22;16051;53.024;8.630;2022-07-04T21:51:19;18.90;99.40
17938;DHT22;16051;53.024;8.630;2022-07-04T21:55:22;18.80;99.90
17938;DHT22;16051;53.024;8.630;2022-07-04T21:59:24;18.70;99.90
17938;DHT22;16051;53.024;8.630;2022-07-04T22:03:27;18.60;99.90
17938;DHT22;16051;53.024;8.630;2022-07-04T22:07:29;18.50;99.90
17938;DHT22;16051;53.024;8.630;2022-07-04T22:11:33;18.40;99.90
17938;DHT22;16051;53.024;8.630;2022-07-04T22:15:35;18.30;99.90
17938;DHT22;16051;53.024;8.630;2022-07-04T22:19:37;18.30;99.90
17938;DHT22;16051;53.024;8.630;2022-07-04T22:23:39;18.10;99.90
17938;DHT22;16051;53.024;8.630;2022-07-04T22:27:43;18.10;99.90
17938;DHT22;16051;53.024;8.630;2022-07-04T22:31:45;18.00;99.90
17938;DHT22;16051;53.024;8.630;2022-07-04T22:35:47;17.90;99.90
17938;DHT22;16051;53.024;8.630;2022-07-04T22:40:19;17.80;99.90
17938;DHT22;16051;53.024;8.630;2022-07-04T22:44:23;17.70;99.90
17938;DHT22;16051;53.024;8.630;2022-07-04T22:48:25;17.70;99.90
17938;DHT22;16051;53.024;8.630;2022-07-04T22:52:27;17.50;99.90
17938;DHT22;16051;53.024;8.630;2022-07-04T22:56:32;17.50;99.90
17938;DHT22;16051;53.024;8.630;2022-07-04T23:00:36;17.40;99.90
17938;DHT22;16051;53.024;8.630;2022-07-04T23:04:38;17.30;99.90
17938;DHT22;16051;53.024;8.630;2022-07-04T23:08:40;17.20;99.90
17938;DHT22;16051;53.024;8.630;2022-07-04T23:12:42;17.10;99.90
17938;DHT22;16051;53.024;8.630;2022-07-04T23:16:46;17.10;99.90
17938;DHT22;16051;53.024;8.630;2022-07-04T23:20:48;17.00;99.90
17938;DHT22;16051;53.024;8.630;2022-07-04T23:24:56;16.90;99.90
17938;DHT22;16051;53.024;8.630;2022-07-04T23:28:58;16.90;99.90
17938;DHT22;16051;53.024;8.630;2022-07-04T23:33:02;16.80;99.90
17938;DHT22;16051;53.024;8.630;2022-07-04T23:37:04;16.70;99.90
17938;DHT22;16051;53.024;8.630;2022-07-04T23:41:25;16.60;99.90
17938;DHT22;16051;53.024;8.630;2022-07-04T23:45:28;16.60;99.90
17938;DHT22;16051;53.024;8.630;2022-07-04T23:49:31;16.50;99.90
17938;DHT22;16051;53.024;8.630;2022-07-04T23:53:34;16.50;99.90
17938;DHT22;16051;53.024;8.630;2022-07-04T23:57:36;16.40;99.90
